createdAt,value
2023-05-18T00:04:34.262Z,21.53
2023-05-18T00:09:37.874Z,21.49
2023-05-18T00:14:40.761Z,21.39
2023-05-18T00:19:46.595Z,21.36
2023-05-18T00:24:49.622Z,21.34
2023-05-18T00:29:52.708Z,21.30
2023-05-18T00:34:56.873Z,21.27
2023-05-18T00:39:59.675Z,21.22
2023-05-18T00:45:03.242Z,21.23
2023-05-18T00:50:08.677Z,21.20
2023-05-18T00:55:12.398Z,21.19
2023-05-18T01:00:15.495Z,21.15
2023-05-18T01:05:20.158Z,21.12
2023-05-18T01:10:23.433Z,21.10
2023-05-18T01:15:30.012Z,21.07
2023-05-18T01:20:38.134Z,21.07
2023-05-18T01:25:49.297Z,21.07
2023-05-18T01:30:53.694Z,21.04
2023-05-18T01:35:56.593Z,21.01
2023-05-18T01:41:04.438Z,20.98
2023-05-18T01:46:12.238Z,20.95
2023-05-18T01:51:16.218Z,20.93
2023-05-18T01:56:20.823Z,20.91
2023-05-18T02:01:25.116Z,20.88
2023-05-18T02:06:28.095Z,20.85
2023-05-18T02:11:31.052Z,20.85
2023-05-18T02:16:35.883Z,20.82
2023-05-18T02:21:38.960Z,20.79
2023-05-18T02:26:41.783Z,20.78
2023-05-18T02:31:46.021Z,20.78
2023-05-18T02:36:48.886Z,20.74
2023-05-18T02:41:51.788Z,20.75
2023-05-18T02:46:56.947Z,20.71
2023-05-18T02:51:59.750Z,20.70
2023-05-18T02:57:02.683Z,20.68
2023-05-18T03:02:18.086Z,20.67
2023-05-18T03:07:21.281Z,20.66
2023-05-18T03:12:24.731Z,20.64
2023-05-18T03:17:29.168Z,20.61
2023-05-18T03:22:32.200Z,20.59
2023-05-18T03:27:37.974Z,20.56
2023-05-18T03:32:42.723Z,20.56
2023-05-18T03:37:45.661Z,20.53
2023-05-18T03:42:48.716Z,20.53
2023-05-18T03:47:53.061Z,20.51
2023-05-18T03:52:56.002Z,20.51
2023-05-18T03:58:00.179Z,20.49
2023-05-18T04:03:04.768Z,20.49
2023-05-18T04:08:08.847Z,20.48
2023-05-18T04:13:11.925Z,20.49
2023-05-18T04:18:16.159Z,20.51
2023-05-18T04:23:19.986Z,20.47
2023-05-18T04:28:23.046Z,20.50
2023-05-18T04:33:27.222Z,20.49
2023-05-18T04:38:30.181Z,20.49
2023-05-18T04:43:33.093Z,20.51
2023-05-18T04:48:37.561Z,20.52
2023-05-18T04:53:40.599Z,20.52
2023-05-18T04:58:45.905Z,20.52
2023-05-18T05:03:50.263Z,20.53
2023-05-18T05:08:53.315Z,20.52
2023-05-18T05:13:56.530Z,20.56
2023-05-18T05:19:00.732Z,20.57
2023-05-18T05:24:05.806Z,20.57
2023-05-18T05:29:08.862Z,20.59
2023-05-18T05:34:13.456Z,20.61
2023-05-18T05:39:16.703Z,20.63
2023-05-18T05:44:19.599Z,20.65
2023-05-18T05:49:24.293Z,20.68
2023-05-18T05:54:27.380Z,20.70
2023-05-18T05:59:30.394Z,20.72
2023-05-18T06:04:35.248Z,20.75
2023-05-18T06:09:38.262Z,20.76
2023-05-18T06:14:41.230Z,20.79
2023-05-18T06:19:46.337Z,20.80
2023-05-18T06:24:49.462Z,20.83
2023-05-18T06:30:18.018Z,20.85
2023-05-18T06:35:43.435Z,20.88
2023-05-18T06:40:46.343Z,20.89
2023-05-18T06:45:49.386Z,20.91
2023-05-18T06:51:05.840Z,20.93
2023-05-18T06:56:11.726Z,20.95
2023-05-18T07:01:15.369Z,20.97
2023-05-18T07:06:19.874Z,20.21
2023-05-18T07:11:22.991Z,19.84
2023-05-18T07:16:27.451Z,19.40
2023-05-18T07:21:32.060Z,18.77
2023-05-18T07:26:34.950Z,19.32
2023-05-18T07:31:42.555Z,19.27
2023-05-18T07:36:48.832Z,19.82
2023-05-18T07:41:51.759Z,19.99
2023-05-18T07:46:54.686Z,20.09
2023-05-18T07:51:59.359Z,20.14
2023-05-18T07:57:02.300Z,20.21
2023-05-18T08:02:06.659Z,20.22
2023-05-18T08:07:12.706Z,20.29
2023-05-18T08:12:15.847Z,20.37
2023-05-18T08:17:19.693Z,20.50
2023-05-18T08:22:23.961Z,20.55
2023-05-18T08:27:27.012Z,20.58
2023-05-18T08:32:30.009Z,20.62
2023-05-18T08:37:34.293Z,20.65
2023-05-18T08:42:49.353Z,20.64
2023-05-18T08:47:53.254Z,20.69
2023-05-18T08:52:57.611Z,20.76
2023-05-18T08:58:00.675Z,20.81
2023-05-18T09:03:03.808Z,20.88
2023-05-18T09:08:08.721Z,20.92
2023-05-18T09:13:11.814Z,20.93
2023-05-18T09:18:14.744Z,20.97
2023-05-18T09:23:19.133Z,21.03
2023-05-18T09:28:27.349Z,21.04
2023-05-18T09:33:34.142Z,21.08
2023-05-18T09:38:43.273Z,21.13
2023-05-18T09:43:46.880Z,21.11
2023-05-18T09:48:51.950Z,21.13
2023-05-18T09:53:56.881Z,21.13
2023-05-18T09:58:59.876Z,21.09
2023-05-18T10:04:04.075Z,21.09
2023-05-18T10:09:15.623Z,21.16
2023-05-18T10:14:18.535Z,21.19
2023-05-18T10:19:21.471Z,21.16
2023-05-18T10:24:25.839Z,21.19
2023-05-18T10:29:29.441Z,21.20
2023-05-18T10:34:32.719Z,21.25
2023-05-18T10:39:38.005Z,21.34
2023-05-18T10:44:40.924Z,21.36
2023-05-18T10:49:44.068Z,21.37
2023-05-18T10:54:48.522Z,21.32
2023-05-18T10:59:51.443Z,21.37
2023-05-18T11:04:54.427Z,21.40
2023-05-18T11:09:58.839Z,21.39
2023-05-18T11:15:02.009Z,21.41
2023-05-18T11:20:15.613Z,21.45
2023-05-18T11:25:44.937Z,21.49
2023-05-18T11:30:49.879Z,21.64
2023-05-18T11:36:01.670Z,21.68
2023-05-18T11:41:08.475Z,21.80
2023-05-18T11:46:11.686Z,21.84
2023-05-18T11:51:14.632Z,21.84
2023-05-18T11:56:18.889Z,21.89
2023-05-18T12:01:23.655Z,21.96
2023-05-18T12:06:26.665Z,21.99
2023-05-18T12:11:31.052Z,22.08
2023-05-18T12:16:34.440Z,22.12
2023-05-18T12:21:37.339Z,22.15
2023-05-18T12:26:42.229Z,22.18
2023-05-18T12:31:45.137Z,22.31
2023-05-18T12:36:54.698Z,22.46
2023-05-18T12:42:14.493Z,22.54
2023-05-18T12:47:18.156Z,22.59
2023-05-18T12:52:22.144Z,22.42
2023-05-18T12:57:27.000Z,22.64
2023-05-18T13:02:32.230Z,22.70
2023-05-18T13:07:37.220Z,22.81
2023-05-18T13:12:42.523Z,22.57
2023-05-18T13:17:58.824Z,22.32
2023-05-18T13:23:03.629Z,22.29
2023-05-18T13:28:10.462Z,22.49
2023-05-18T13:33:13.427Z,22.43
2023-05-18T13:38:16.714Z,22.34
2023-05-18T13:43:21.008Z,22.59
2023-05-18T13:48:31.318Z,22.59
2023-05-18T13:53:40.778Z,22.61
2023-05-18T13:58:46.131Z,22.48
2023-05-18T14:03:49.156Z,22.38
2023-05-18T14:08:52.303Z,22.62
2023-05-18T14:13:56.833Z,22.78
2023-05-18T14:18:59.792Z,22.68
2023-05-18T14:24:05.820Z,22.59
2023-05-18T14:29:10.477Z,22.52
2023-05-18T14:34:13.708Z,22.44
2023-05-18T14:39:16.564Z,22.48
2023-05-18T14:44:20.762Z,22.71
2023-05-18T14:49:23.773Z,22.84
2023-05-18T14:54:26.790Z,22.80
2023-05-18T14:59:31.089Z,22.59
2023-05-18T15:04:34.185Z,22.47
2023-05-18T15:09:37.092Z,22.89
2023-05-18T15:14:41.279Z,23.05
2023-05-18T15:19:44.297Z,22.73
2023-05-18T15:24:47.229Z,22.60
2023-05-18T15:29:51.443Z,22.57
2023-05-18T15:34:54.457Z,22.69
2023-05-18T15:39:57.288Z,22.68
2023-05-18T15:45:03.096Z,22.73
2023-05-18T15:50:07.088Z,22.60
2023-05-18T15:55:10.771Z,22.63
2023-05-18T16:00:16.342Z,22.60
2023-05-18T16:05:19.419Z,22.69
2023-05-18T16:10:23.478Z,23.03
2023-05-18T16:15:29.107Z,23.13
2023-05-18T16:20:32.212Z,23.10
2023-05-18T16:25:35.382Z,23.03
2023-05-18T16:30:39.594Z,22.96
2023-05-18T16:35:42.423Z,22.91
2023-05-18T16:40:45.252Z,22.87
2023-05-18T16:45:49.428Z,22.87
2023-05-18T16:50:52.312Z,22.90
2023-05-18T16:55:55.162Z,22.87
2023-05-18T17:00:59.633Z,22.83
2023-05-18T17:06:02.566Z,22.83
2023-05-18T17:11:05.476Z,22.85
2023-05-18T17:16:09.942Z,22.83
2023-05-18T17:21:12.833Z,22.87
2023-05-18T17:26:15.844Z,23.00
2023-05-18T17:31:20.215Z,23.00
2023-05-18T17:36:23.034Z,22.96
2023-05-18T17:41:39.875Z,22.92
2023-05-18T17:46:51.324Z,22.92
2023-05-18T17:52:03.526Z,23.01
2023-05-18T17:57:12.605Z,22.99
2023-05-18T18:02:16.866Z,23.02
2023-05-18T18:07:19.797Z,23.01
2023-05-18T18:12:23.105Z,23.09
2023-05-18T18:17:27.372Z,23.12
2023-05-18T18:22:30.251Z,23.11
2023-05-18T18:27:33.140Z,23.11
2023-05-18T18:32:37.459Z,23.11
2023-05-18T18:37:40.537Z,23.09
2023-05-18T18:42:43.500Z,23.08
2023-05-18T18:47:47.694Z,23.18
2023-05-18T18:52:50.665Z,23.23
2023-05-18T18:57:53.658Z,23.04
2023-05-18T19:02:58.024Z,23.04
2023-05-18T19:08:01.728Z,23.04
2023-05-18T19:13:06.139Z,23.06
2023-05-18T19:18:10.457Z,23.00
2023-05-18T19:23:13.517Z,22.96
2023-05-18T19:28:16.460Z,22.95
2023-05-18T19:33:20.689Z,22.93
2023-05-18T19:38:23.528Z,22.91
2023-05-18T19:43:26.316Z,22.90
2023-05-18T19:48:31.403Z,22.89
2023-05-18T19:53:34.278Z,22.88
2023-05-18T19:58:37.180Z,22.89
2023-05-18T20:03:43.552Z,22.86
2023-05-18T20:08:46.652Z,22.88
2023-05-18T20:13:49.531Z,22.89
2023-05-18T20:18:53.755Z,22.87
2023-05-18T20:23:56.655Z,22.86
2023-05-18T20:28:59.490Z,22.87
2023-05-18T20:34:03.956Z,22.80
2023-05-18T20:39:07.261Z,22.89
2023-05-18T20:44:10.592Z,22.89
2023-05-18T20:49:15.413Z,22.87
2023-05-18T20:54:18.929Z,22.88
2023-05-18T20:59:22.034Z,22.89
2023-05-18T21:04:26.207Z,22.89
2023-05-18T21:09:31.200Z,22.87
2023-05-18T21:14:34.230Z,22.87
2023-05-18T21:19:38.471Z,22.89
2023-05-18T21:24:41.287Z,22.88
2023-05-18T21:29:44.130Z,22.88
2023-05-18T21:34:48.307Z,22.88
2023-05-18T21:39:51.158Z,22.89
2023-05-18T21:44:54.660Z,22.88
2023-05-18T21:49:58.815Z,22.88
2023-05-18T21:55:01.619Z,22.90
2023-05-18T22:00:07.791Z,22.89
2023-05-18T22:05:19.215Z,22.90
2023-05-18T22:10:22.049Z,22.89
2023-05-18T22:15:24.937Z,22.87
2023-05-18T22:20:29.519Z,22.84
2023-05-18T22:25:32.590Z,22.81
2023-05-18T22:30:35.558Z,22.76
2023-05-18T22:35:39.810Z,22.69
2023-05-18T22:40:42.666Z,22.64
2023-05-18T22:45:45.461Z,22.57
2023-05-18T22:50:49.648Z,22.54
2023-05-18T22:55:52.561Z,22.51
2023-05-18T23:00:56.047Z,22.48
2023-05-18T23:06:03.804Z,22.44
2023-05-18T23:11:06.750Z,22.41
2023-05-18T23:16:10.473Z,22.37
2023-05-18T23:21:14.871Z,22.33
2023-05-18T23:26:17.707Z,22.30
2023-05-18T23:31:21.905Z,22.27
2023-05-18T23:36:27.341Z,22.20
2023-05-18T23:41:31.037Z,22.18
2023-05-18T23:46:35.400Z,22.16
2023-05-18T23:51:39.575Z,22.10
2023-05-18T23:56:42.875Z,22.08
